Silverthorne, Colorado
Current Conditions -  °F | °C
As of 4:57 PM on Friday 31 Oct 2014 (Local Time) from KCCU Reporting Station
Clear Clear  
Wind Chill: 38°   Ceiling: Unl
Heat Index: 45°   Visibility: NA
Dew Point:   Wind: 13mph
Humidity: 21%   Direction: 270°W
Pressure: 30.41"   Gusts: 18mph
Location:  39.65°N, 106.08°W
Report Text: KCCU 312257Z AUTO 27011G16KT CLR 07/M14 A3041 RMK AO2 PWINO
Loading
Personal Weather Stations






























Interactive Weather Map
Tropical Storm Tracking
New forecast layout! Learn more

10-Day Weather Forecast

Advertisements
Track Severe Weather on mobile